Airfield :
LOGIN :

Register | Disclaimer

   EN    FR    IT 

 










Legend :    VFR   Marginal VFR   IFR   Intensive IFR   Very Intensive IFR
Visi :
Ceiling :
>= 8 km
>= 3000ft
5 to 8 km
1000 to 3000 ft
1500m to 5 km
500 to 1000 ft
800 to 1500m
200 to 500 ft
< 800m
< 200 ft
Symbols :   Thunderstorms  Fog  Heavy snow  Heavy precipitations  Wind > 20 kt
SIGMETs :     Misc.  Thunderstorms  Icing  Turbulence  Mountain Waves  Volcanic Ashes






- Airport Elevation : 56 ft
- IATA code : BZR


LFMU - Beziers / Vias

CURRENT METAR :
  • 070400Z AUTO 25005KT 230V290 CAVOK 16/16 Q1006

EXPIRED METARs :
  • 070330Z AUTO 29005KT CAVOK 17/16 Q1006
  • 070300Z AUTO 29004KT 9999 FEW007 SCT064 OVC078 17/16 Q1006
  • 070230Z AUTO 27004KT 240V330 9999 -RA NSC 17/16 Q1007
  • 070200Z AUTO 30005KT 260V330 9999 4200 RA FEW008/// BKN034/// BKN056/// ///TCU 17/16 Q1006
  • 070130Z AUTO 28004KT 9999 -RA FEW005/// OVC098/// ///TCU 17/16 Q1007

Expired Forecast.
ATIS : +33 4 67 90 88 88



MET'MAP, your aeronautical weather chart ! - Copyright ORBIFLY December 2007 - Disclaimer

ORBIFLY MET'MAP TEAM :

Programming & Development : Alexandra Zaïnal
Concept & original design : Baudouin d'Aumeries
Assistance for programming : Marc-Olivier Méhu
Technical & hardware support : Manuel Goepfert

Contact : metmap@orbifly.com




SOURCES & CREDITS :

   NOAA